Time;durP1;ratioP1;P1;durP2;ratioP2;P2;SDS_P1;SDS_P2;PMS_P1;PMS_P2;Temp;Humidity;BMP_temperature;BMP_pressure;BME280_temperature;BME280_humidity;BME280_pressure;Samples;Min_cycle;Max_cycle;Signal;HPM_P1;HPM_P2
2023/12/15 00:01:38;;;;;;;32.17;9.05;;;8.00;99.90;;;;;;5032947;28;20487;-55
2023/12/15 00:04:04;;;;;;;20.13;9.68;;;8.10;99.90;;;;;;5033919;28;20043;-55
2023/12/15 00:06:30;;;;;;;16.65;9.18;;;8.00;99.90;;;;;;5033664;28;20091;-56
2023/12/15 00:08:55;;;;;;;19.95;9.77;;;8.00;99.90;;;;;;5032868;28;20022;-57
2023/12/15 00:11:21;;;;;;;17.17;8.40;;;8.00;99.90;;;;;;5032477;28;20022;-55
2023/12/15 00:13:47;;;;;;;21.35;10.95;;;8.00;99.90;;;;;;5033414;28;20026;-58
2023/12/15 00:16:12;;;;;;;17.45;9.35;;;8.00;99.90;;;;;;5033637;28;20128;-55
2023/12/15 00:18:38;;;;;;;21.10;8.75;;;8.00;99.90;;;;;;5032980;28;20026;-57
2023/12/15 00:21:04;;;;;;;23.42;10.00;;;8.00;99.90;;;;;;5031122;28;20117;-57
2023/12/15 00:23:30;;;;;;;28.70;10.52;;;8.00;99.90;;;;;;5033334;28;20037;-55
2023/12/15 00:25:55;;;;;;;24.58;10.05;;;8.00;99.90;;;;;;5024558;28;20026;-49
2023/12/15 00:28:21;;;;;;;16.98;9.30;;;8.00;99.90;;;;;;5031666;28;20109;-57
2023/12/15 00:30:46;;;;;;;21.75;10.25;;;8.00;99.90;;;;;;5033453;28;20035;-58
2023/12/15 00:33:12;;;;;;;26.38;10.52;;;8.00;99.90;;;;;;5029775;28;20473;-57
2023/12/15 00:35:38;;;;;;;18.05;10.48;;;8.00;99.90;;;;;;5030169;28;20444;-56
2023/12/15 00:38:03;;;;;;;18.42;9.85;;;8.00;99.90;;;;;;5020923;28;20492;-58
2023/12/15 00:40:29;;;;;;;21.50;9.63;;;8.00;99.90;;;;;;5029508;28;20060;-57
2023/12/15 00:42:55;;;;;;;19.55;10.05;;;8.00;99.90;;;;;;5023347;28;20041;-58
2023/12/15 00:45:20;;;;;;;24.67;9.85;;;8.00;99.90;;;;;;5031155;28;20025;-57
2023/12/15 00:47:46;;;;;;;24.27;10.35;;;8.10;99.90;;;;;;5023536;28;20038;-53
2023/12/15 00:50:12;;;;;;;23.58;12.02;;;8.20;99.90;;;;;;5024432;28;20028;-54
2023/12/15 00:52:37;;;;;;;18.75;10.57;;;8.10;99.90;;;;;;5030389;28;20021;-56
2023/12/15 00:55:06;;;;;;;25.80;9.75;;;8.10;99.90;;;;;;5030694;28;20083;-55
2023/12/15 00:57:32;;;;;;;31.08;11.48;;;8.10;99.90;;;;;;5026211;28;20030;-55
2023/12/15 00:59:58;;;;;;;24.58;10.40;;;8.10;99.90;;;;;;5032034;28;20028;-56
2023/12/15 01:02:23;;;;;;;19.40;9.50;;;8.10;99.90;;;;;;5031424;28;20109;-58
2023/12/15 01:04:49;;;;;;;27.75;10.82;;;8.10;99.90;;;;;;5032070;28;20018;-56
2023/12/15 01:07:15;;;;;;;25.73;9.80;;;8.10;99.90;;;;;;5033015;28;20150;-55
2023/12/15 01:09:40;;;;;;;24.25;10.25;;;8.10;99.90;;;;;;5032485;28;20029;-58
2023/12/15 01:12:06;;;;;;;27.17;10.30;;;8.10;99.90;;;;;;5032566;28;20021;-54
2023/12/15 01:14:32;;;;;;;21.08;10.57;;;8.20;99.90;;;;;;5031374;28;20033;-56
2023/12/15 01:16:59;;;;;;;31.85;11.55;;;8.20;99.90;;;;;;5031918;28;20037;-56
2023/12/15 01:19:24;;;;;;;25.92;10.85;;;8.20;99.90;;;;;;5032224;28;20122;-56
2023/12/15 01:21:50;;;;;;;32.22;11.50;;;8.20;99.90;;;;;;5032506;28;20128;-59
2023/12/15 01:24:16;;;;;;;32.80;11.57;;;8.20;99.90;;;;;;5032308;28;20075;-56
2023/12/15 01:26:41;;;;;;;24.45;11.07;;;8.20;99.90;;;;;;5032018;28;20050;-54
2023/12/15 01:29:07;;;;;;;28.02;10.70;;;8.20;99.90;;;;;;5031439;28;20080;-57
2023/12/15 01:31:33;;;;;;;29.42;12.43;;;8.20;99.90;;;;;;5029967;28;20388;-55
2023/12/15 01:33:58;;;;;;;28.58;11.82;;;8.30;99.90;;;;;;5032507;28;20017;-56
2023/12/15 01:36:24;;;;;;;29.52;11.38;;;8.20;99.90;;;;;;5031603;28;20376;-54
2023/12/15 01:38:51;;;;;;;31.13;12.45;;;8.30;99.90;;;;;;5032281;28;20041;-57
2023/12/15 01:41:17;;;;;;;24.30;10.75;;;8.20;99.90;;;;;;5032343;28;20484;-56
2023/12/15 01:43:42;;;;;;;32.13;13.27;;;8.20;99.90;;;;;;5032275;28;20036;-55
2023/12/15 01:46:08;;;;;;;28.45;9.98;;;8.20;99.90;;;;;;5032180;28;20057;-54
2023/12/15 01:48:34;;;;;;;23.73;10.02;;;8.20;99.90;;;;;;5032432;28;20210;-54
2023/12/15 01:51:00;;;;;;;25.20;10.80;;;8.20;99.90;;;;;;5026199;28;20029;-56
2023/12/15 01:53:26;;;;;;;37.67;12.38;;;8.10;99.90;;;;;;5031770;28;20022;-56
2023/12/15 01:55:52;;;;;;;29.63;11.27;;;8.10;99.90;;;;;;5030556;28;20505;-58
2023/12/15 01:58:18;;;;;;;29.67;11.77;;;8.20;99.90;;;;;;5030979;28;20502;-57
2023/12/15 02:00:47;;;;;;;32.72;12.25;;;8.20;99.90;;;;;;5031109;28;20498;-57
2023/12/15 02:03:13;;;;;;;38.80;12.35;;;8.20;99.90;;;;;;5028040;28;20029;-51
2023/12/15 02:05:38;;;;;;;37.83;12.55;;;8.20;99.90;;;;;;5029286;28;20044;-54
2023/12/15 02:08:04;;;;;;;30.15;11.23;;;8.30;99.90;;;;;;5031308;28;20491;-53
2023/12/15 02:10:30;;;;;;;31.02;11.50;;;8.30;99.90;;;;;;5031116;28;20418;-55
2023/12/15 02:12:55;;;;;;;30.83;12.05;;;8.30;99.90;;;;;;5031460;28;20025;-54
2023/12/15 02:15:21;;;;;;;26.05;11.48;;;8.40;99.90;;;;;;5035715;28;20056;-53
2023/12/15 02:17:47;;;;;;;34.53;12.48;;;8.40;99.90;;;;;;5036134;28;20179;-55
2023/12/15 02:20:12;;;;;;;25.77;10.93;;;8.40;99.90;;;;;;5035665;28;20033;-54
2023/12/15 02:22:38;;;;;;;42.30;11.93;;;8.40;99.90;;;;;;5035133;28;20112;-51
2023/12/15 02:25:04;;;;;;;36.38;13.43;;;8.40;99.90;;;;;;5034154;28;20033;-53
2023/12/15 02:27:30;;;;;;;24.08;11.63;;;8.40;99.90;;;;;;5035541;28;20041;-55
2023/12/15 02:29:55;;;;;;;30.55;12.23;;;8.40;99.90;;;;;;5034872;28;20353;-56
2023/12/15 02:32:21;;;;;;;27.02;11.63;;;8.40;99.90;;;;;;5032473;28;20014;-60
2023/12/15 02:34:47;;;;;;;28.70;11.82;;;8.40;99.90;;;;;;5029897;28;20498;-56
2023/12/15 02:37:12;;;;;;;29.55;11.88;;;8.40;99.90;;;;;;5029879;28;20387;-55
2023/12/15 02:39:39;;;;;;;28.63;12.45;;;8.40;99.90;;;;;;5035678;28;20021;-54
2023/12/15 02:42:05;;;;;;;30.33;13.40;;;8.40;99.90;;;;;;5034553;28;20038;-55
2023/12/15 02:44:31;;;;;;;25.77;11.30;;;8.40;99.90;;;;;;5033735;28;20031;-56
2023/12/15 02:46:56;;;;;;;30.48;12.10;;;8.40;99.90;;;;;;5035373;28;20108;-54
2023/12/15 02:49:22;;;;;;;26.00;10.10;;;8.40;99.90;;;;;;5035315;28;20017;-52
2023/12/15 02:51:48;;;;;;;27.60;11.38;;;8.40;99.90;;;;;;5034972;28;20060;-58
2023/12/15 02:54:13;;;;;;;27.88;11.95;;;8.50;99.90;;;;;;5035599;28;20018;-57
2023/12/15 02:56:39;;;;;;;35.80;12.43;;;8.50;99.90;;;;;;5035165;28;20028;-53
2023/12/15 02:59:05;;;;;;;28.75;12.02;;;8.50;99.90;;;;;;5035294;28;20074;-57
2023/12/15 03:01:30;;;;;;;24.38;11.30;;;8.50;99.90;;;;;;5032775;28;20025;-57
2023/12/15 03:03:56;;;;;;;37.38;12.48;;;8.40;99.90;;;;;;5034021;28;20032;-54
2023/12/15 03:06:23;;;;;;;41.90;12.65;;;8.40;99.90;;;;;;5034350;28;20021;-55
2023/12/15 03:08:49;;;;;;;24.63;10.27;;;8.40;99.90;;;;;;5033410;28;20390;-57
2023/12/15 03:11:15;;;;;;;24.23;12.02;;;8.40;99.90;;;;;;5034548;28;20052;-55
2023/12/15 03:13:40;;;;;;;31.48;14.07;;;8.40;99.90;;;;;;5034644;28;20044;-56
2023/12/15 03:16:11;;;;;;;26.50;11.80;;;8.30;99.90;;;;;;5034915;28;20562;-56
2023/12/15 03:18:37;;;;;;;34.15;11.88;;;8.40;99.90;;;;;;5034957;28;20526;-56
2023/12/15 03:21:03;;;;;;;31.13;12.30;;;8.30;99.90;;;;;;5034893;28;20025;-54
2023/12/15 03:23:29;;;;;;;26.65;11.63;;;8.30;99.90;;;;;;5034053;28;20025;-57
2023/12/15 03:25:55;;;;;;;29.48;12.27;;;8.30;99.90;;;;;;5032490;28;20033;-57
2023/12/15 03:28:20;;;;;;;24.52;11.30;;;8.30;99.90;;;;;;5033083;28;20418;-57
2023/12/15 03:30:46;;;;;;;37.17;11.90;;;8.30;99.90;;;;;;5034317;28;20021;-56
2023/12/15 03:33:12;;;;;;;27.10;11.25;;;8.30;99.90;;;;;;5033875;28;20041;-55
2023/12/15 03:35:37;;;;;;;26.05;10.52;;;8.30;99.90;;;;;;5034103;28;20437;-57
2023/12/15 03:38:05;;;;;;;29.15;12.13;;;8.30;99.90;;;;;;5034366;28;20036;-55
2023/12/15 03:40:31;;;;;;;27.20;10.75;;;8.30;99.90;;;;;;5034123;28;20029;-56
2023/12/15 03:42:57;;;;;;;25.80;10.15;;;8.40;99.90;;;;;;5033736;28;20032;-56
2023/12/15 03:45:23;;;;;;;29.75;10.27;;;8.40;99.90;;;;;;5033371;28;20029;-57
2023/12/15 03:47:50;;;;;;;25.77;11.13;;;8.40;99.90;;;;;;5032363;28;20553;-56
2023/12/15 03:50:16;;;;;;;22.70;10.63;;;8.40;99.90;;;;;;5032659;28;20109;-56
2023/12/15 03:52:41;;;;;;;23.10;10.15;;;8.40;99.90;;;;;;5033250;28;20179;-57
2023/12/15 03:55:07;;;;;;;21.45;9.80;;;8.50;99.90;;;;;;5033817;28;20025;-57
2023/12/15 03:57:33;;;;;;;24.17;11.15;;;8.50;99.90;;;;;;5033285;28;20101;-55
2023/12/15 03:59:59;;;;;;;24.98;10.50;;;8.40;99.90;;;;;;5033073;28;20424;-54
2023/12/15 04:02:25;;;;;;;20.67;10.20;;;8.40;99.90;;;;;;5030419;28;20032;-56
2023/12/15 04:04:50;;;;;;;25.48;9.88;;;8.40;99.90;;;;;;5032129;28;20051;-55
2023/12/15 04:07:16;;;;;;;25.35;9.55;;;8.40;99.90;;;;;;5031875;28;20033;-55
2023/12/15 04:09:42;;;;;;;22.88;11.07;;;8.40;99.90;;;;;;5031905;28;20495;-56
2023/12/15 04:12:08;;;;;;;22.70;10.50;;;8.40;99.90;;;;;;5031886;28;20030;-55
2023/12/15 04:14:34;;;;;;;21.67;9.85;;;8.40;99.90;;;;;;5032424;28;20029;-54
2023/12/15 04:17:00;;;;;;;18.92;9.35;;;8.50;99.90;;;;;;5032746;28;20480;-56
2023/12/15 04:19:26;;;;;;;21.98;9.75;;;8.50;99.90;;;;;;5025073;28;20029;-54
2023/12/15 04:21:51;;;;;;;27.33;10.07;;;8.50;99.90;;;;;;5033251;28;20030;-54
2023/12/15 04:24:18;;;;;;;24.83;9.80;;;8.50;99.90;;;;;;5032014;28;20151;-57
2023/12/15 04:26:44;;;;;;;20.38;8.88;;;8.50;99.90;;;;;;5032446;28;20491;-54
2023/12/15 04:29:10;;;;;;;21.45;8.95;;;8.50;99.90;;;;;;5032361;28;20055;-54
2023/12/15 04:31:36;;;;;;;17.80;9.15;;;8.50;99.90;;;;;;5032155;28;20151;-58
2023/12/15 04:34:01;;;;;;;18.23;9.52;;;8.50;99.90;;;;;;5033291;28;20014;-56
2023/12/15 04:36:27;;;;;;;19.10;7.90;;;8.60;99.90;;;;;;5032802;28;20096;-55
2023/12/15 04:38:53;;;;;;;18.42;8.73;;;8.60;99.90;;;;;;5032009;28;20029;-56
2023/12/15 04:41:23;;;;;;;22.70;9.20;;;8.60;99.90;;;;;;5031857;28;20033;-55
2023/12/15 04:43:49;;;;;;;26.88;10.85;;;8.50;99.90;;;;;;5032870;28;20604;-55
2023/12/15 04:46:26;;;;;;;21.70;8.93;;;8.50;99.90;;;;;;5030164;28;20021;-56
2023/12/15 04:48:53;;;;;;;20.15;8.60;;;8.40;99.90;;;;;;5030850;28;20518;-55
2023/12/15 04:51:19;;;;;;;19.17;8.77;;;8.40;99.90;;;;;;5031250;28;20022;-50
2023/12/15 04:53:46;;;;;;;22.48;8.98;;;8.40;99.90;;;;;;5031280;28;20037;-55
2023/12/15 04:56:12;;;;;;;24.20;9.18;;;8.40;99.90;;;;;;5031589;28;20029;-55
2023/12/15 04:58:38;;;;;;;22.98;8.75;;;8.40;99.90;;;;;;5029878;28;20029;-57
2023/12/15 05:01:04;;;;;;;24.40;9.65;;;8.30;99.90;;;;;;5032045;28;20488;-55
2023/12/15 05:03:32;;;;;;;17.55;8.05;;;8.30;99.90;;;;;;5031404;28;20028;-57
2023/12/15 05:05:57;;;;;;;;;;;8.30;99.90;;;;;;5029129;28;20489;-52
2023/12/15 05:08:23;;;;;;;18.77;8.23;;;8.30;99.90;;;;;;5029537;28;19917;-56
2023/12/15 05:10:48;;;;;;;16.80;9.07;;;8.40;99.90;;;;;;5032697;28;20029;-55
2023/12/15 05:13:14;;;;;;;16.88;8.30;;;8.40;99.90;;;;;;5031930;28;20518;-56
2023/12/15 05:15:40;;;;;;;18.63;9.27;;;8.40;99.90;;;;;;5032684;28;20025;-55
2023/12/15 05:18:05;;;;;;;17.00;8.70;;;8.40;99.90;;;;;;5030469;28;20025;-56
2023/12/15 05:20:36;;;;;;;18.80;8.57;;;8.30;99.90;;;;;;5031249;28;20108;-55
2023/12/15 05:23:03;;;;;;;17.38;7.88;;;8.40;99.90;;;;;;5031240;28;20465;-56
2023/12/15 05:25:28;;;;;;;19.65;8.00;;;8.40;99.90;;;;;;5030900;28;20060;-56
2023/12/15 05:27:54;;;;;;;11.73;8.13;;;8.40;99.90;;;;;;5028054;28;20085;-57
2023/12/15 05:30:19;;;;;;;19.83;8.10;;;8.40;99.90;;;;;;5030355;28;20586;-55
2023/12/15 05:32:45;;;;;;;18.77;8.45;;;8.40;99.90;;;;;;5029866;28;20025;-56
2023/12/15 05:35:11;;;;;;;15.77;7.63;;;8.40;99.90;;;;;;5032357;28;20108;-55
2023/12/15 05:37:36;;;;;;;24.80;8.05;;;8.40;99.90;;;;;;5032204;28;20021;-55
2023/12/15 05:40:03;;;;;;;15.23;6.95;;;8.40;99.90;;;;;;5030162;28;20112;-57
2023/12/15 05:42:28;;;;;;;15.02;7.40;;;8.40;99.90;;;;;;5032336;28;20116;-56
2023/12/15 05:44:54;;;;;;;19.70;8.48;;;8.50;99.90;;;;;;5032187;28;20187;-56
2023/12/15 05:47:20;;;;;;;11.75;6.68;;;8.40;99.90;;;;;;5031608;28;20024;-57
2023/12/15 05:49:45;;;;;;;15.90;7.93;;;8.50;99.90;;;;;;5035396;28;20025;-55
2023/12/15 05:52:11;;;;;;;21.95;8.10;;;8.50;99.90;;;;;;5036266;28;20098;-58
2023/12/15 05:54:40;;;;;;;17.77;7.47;;;8.50;99.90;;;;;;5036025;28;20033;-56
2023/12/15 05:57:06;;;;;;;14.02;7.45;;;8.50;99.90;;;;;;5035905;28;20273;-53
2023/12/15 05:59:32;;;;;;;19.05;7.20;;;8.60;99.90;;;;;;5036819;28;20390;-57
2023/12/15 06:01:58;;;;;;;15.57;6.90;;;8.60;99.90;;;;;;5034535;28;20022;-57
2023/12/15 06:04:24;;;;;;;17.20;6.68;;;8.60;99.90;;;;;;5035971;28;20022;-54
2023/12/15 06:06:50;;;;;;;17.73;6.78;;;8.60;99.90;;;;;;5034550;28;20028;-52
2023/12/15 06:09:16;;;;;;;17.52;6.35;;;8.70;99.90;;;;;;5034349;28;20104;-56
2023/12/15 06:11:42;;;;;;;18.98;6.45;;;8.70;99.90;;;;;;5035208;28;20498;-55
2023/12/15 06:14:09;;;;;;;18.15;7.13;;;8.70;99.90;;;;;;5035385;28;20029;-54
2023/12/15 06:16:35;;;;;;;19.10;6.32;;;8.70;99.90;;;;;;5035687;28;20037;-56
2023/12/15 06:19:01;;;;;;;18.92;6.50;;;8.80;99.90;;;;;;5025402;28;20029;-55
2023/12/15 06:21:27;;;;;;;12.57;6.60;;;8.70;99.90;;;;;;5027774;28;20033;-56
2023/12/15 06:23:54;;;;;;;12.05;6.88;;;8.80;99.90;;;;;;5035277;28;20083;-57
2023/12/15 06:26:20;;;;;;;17.10;6.80;;;8.70;99.90;;;;;;5035495;28;20471;-54
2023/12/15 06:28:46;;;;;;;10.68;6.07;;;8.70;99.90;;;;;;5035514;28;20060;-56
2023/12/15 06:31:12;;;;;;;16.92;6.95;;;8.70;99.90;;;;;;5032842;28;20025;-55
2023/12/15 06:33:38;;;;;;;20.88;7.32;;;8.70;99.90;;;;;;5034923;28;20022;-55
2023/12/15 06:36:04;;;;;;;12.65;6.65;;;8.70;99.90;;;;;;5035676;28;20041;-57
2023/12/15 06:38:29;;;;;;;11.40;6.28;;;8.60;99.90;;;;;;5035615;28;20502;-55
2023/12/15 06:40:55;;;;;;;17.38;6.43;;;8.60;99.90;;;;;;5035143;28;20151;-55
2023/12/15 06:43:21;;;;;;;23.33;6.68;;;8.70;99.90;;;;;;5035969;28;20391;-58
2023/12/15 06:45:46;;;;;;;12.75;5.55;;;8.70;99.90;;;;;;5035064;28;20017;-58
2023/12/15 06:48:12;;;;;;;21.17;6.10;;;8.70;99.90;;;;;;5034121;28;20112;-55
2023/12/15 06:50:38;;;;;;;13.35;6.38;;;8.70;99.90;;;;;;5034830;28;20104;-55
2023/12/15 06:53:03;;;;;;;13.60;6.53;;;8.80;99.90;;;;;;5034883;28;20040;-56
2023/12/15 06:55:29;;;;;;;13.25;5.50;;;8.70;99.90;;;;;;5035462;28;20044;-57
2023/12/15 06:57:55;;;;;;;14.73;6.72;;;8.80;99.90;;;;;;5034928;28;20092;-46
2023/12/15 07:00:20;;;;;;;23.77;6.45;;;8.80;99.90;;;;;;5034326;28;20079;-46
2023/12/15 07:02:46;;;;;;;23.58;6.45;;;8.80;99.90;;;;;;5034997;28;20021;-43
2023/12/15 07:05:12;;;;;;;19.77;5.97;;;8.90;99.90;;;;;;5034724;28;20021;-46
2023/12/15 07:07:37;;;;;;;14.30;6.75;;;8.90;99.90;;;;;;5035155;28;20395;-45
2023/12/15 07:10:04;;;;;;;10.13;5.47;;;8.90;99.90;;;;;;5034726;28;20171;-47
2023/12/15 07:12:29;;;;;;;12.68;5.47;;;8.90;99.90;;;;;;5033337;28;20396;-45
2023/12/15 07:14:55;;;;;;;15.63;5.95;;;8.90;99.90;;;;;;5034382;28;20030;-45
2023/12/15 07:17:20;;;;;;;16.35;5.97;;;8.80;99.90;;;;;;5034621;28;20034;-46
2023/12/15 07:19:46;;;;;;;17.35;6.32;;;8.90;99.90;;;;;;5032679;28;20026;-46
2023/12/15 07:22:13;;;;;;;24.08;6.38;;;8.80;99.90;;;;;;5033005;28;20487;-43
2023/12/15 07:24:40;;;;;;;15.38;5.88;;;8.80;99.90;;;;;;5034598;28;20484;-41
2023/12/15 07:27:06;;;;;;;14.70;5.53;;;8.80;99.90;;;;;;5033177;28;20045;-44
2023/12/15 07:29:32;;;;;;;11.80;5.03;;;8.80;99.90;;;;;;5034122;28;20021;-45
2023/12/15 07:31:58;;;;;;;19.17;6.18;;;8.80;99.90;;;;;;5033692;28;20025;-45
2023/12/15 07:34:23;;;;;;;14.75;6.00;;;8.80;99.90;;;;;;5033675;28;20088;-57
2023/12/15 07:36:49;;;;;;;23.95;5.93;;;8.90;99.90;;;;;;5034006;28;20017;-55
2023/12/15 07:39:21;;;;;;;12.63;5.32;;;8.90;99.90;;;;;;5034086;28;20056;-54
2023/12/15 07:41:50;;;;;;;19.17;5.80;;;8.90;99.90;;;;;;5030749;28;20017;-58
2023/12/15 07:44:17;;;;;;;16.23;6.50;;;8.90;99.90;;;;;;5033046;28;20430;-55
2023/12/15 07:46:43;;;;;;;17.30;6.03;;;8.90;99.90;;;;;;5031476;28;20491;-56
2023/12/15 07:49:12;;;;;;;22.08;6.28;;;8.90;99.90;;;;;;5032779;28;20022;-54
2023/12/15 07:51:38;;;;;;;18.30;5.00;;;8.90;99.90;;;;;;5031673;28;20064;-54
2023/12/15 07:54:04;;;;;;;14.60;5.20;;;8.90;99.90;;;;;;5031011;28;20077;-57
2023/12/15 07:56:30;;;;;;;13.80;5.13;;;9.00;99.90;;;;;;5032984;28;20040;-56
2023/12/15 07:58:56;;;;;;;13.40;4.90;;;9.00;99.90;;;;;;5032703;28;20467;-56
2023/12/15 08:01:24;;;;;;;14.50;5.00;;;9.00;99.90;;;;;;5032806;28;20025;-50
2023/12/15 08:03:52;;;;;;;9.13;4.30;;;9.00;99.90;;;;;;5030020;28;20487;-57
2023/12/15 08:06:18;;;;;;;9.60;4.38;;;9.00;99.90;;;;;;5032184;28;20029;-57
2023/12/15 08:08:45;;;;;;;12.80;4.38;;;9.00;99.90;;;;;;5032809;28;20383;-57
2023/12/15 08:11:11;;;;;;;10.25;4.60;;;9.10;99.90;;;;;;5031576;28;20148;-56
2023/12/15 08:13:38;;;;;;;18.08;4.97;;;9.10;99.90;;;;;;5031559;28;20537;-54
2023/12/15 08:16:04;;;;;;;12.25;5.15;;;9.10;99.90;;;;;;5032504;28;20515;-56
2023/12/15 08:18:30;;;;;;;15.45;5.20;;;9.10;99.90;;;;;;5030508;28;20041;-54
2023/12/15 08:20:57;;;;;;;10.35;4.18;;;9.10;99.90;;;;;;5032251;28;20514;-56
2023/12/15 08:23:23;;;;;;;20.63;4.93;;;9.20;99.90;;;;;;5030997;28;20026;-57
2023/12/15 08:25:49;;;;;;;14.10;4.80;;;9.10;99.90;;;;;;5032976;28;20030;-56
2023/12/15 08:28:14;;;;;;;13.05;5.10;;;9.20;99.90;;;;;;5032187;28;20422;-55
2023/12/15 08:30:41;;;;;;;12.98;4.50;;;9.20;99.90;;;;;;5032171;28;20509;-57
2023/12/15 08:33:07;;;;;;;17.60;4.72;;;9.20;99.90;;;;;;5030265;28;20033;-58
2023/12/15 08:35:35;;;;;;;21.92;4.15;;;9.30;99.90;;;;;;5031664;28;20032;-57
2023/12/15 08:38:01;;;;;;;14.35;4.60;;;9.30;99.90;;;;;;5032220;28;20064;-54
2023/12/15 08:40:27;;;;;;;10.73;4.00;;;9.30;99.90;;;;;;5029819;28;20107;-54
2023/12/15 08:42:53;;;;;;;9.48;4.55;;;9.40;99.90;;;;;;5031553;28;20443;-57
2023/12/15 08:45:19;;;;;;;10.10;4.40;;;9.40;99.90;;;;;;5030895;28;20025;-57
2023/12/15 08:47:45;;;;;;;14.38;4.18;;;9.40;99.90;;;;;;5031141;28;20021;-56
2023/12/15 08:50:10;;;;;;;27.02;4.28;;;9.50;99.90;;;;;;5032863;28;20057;-57
2023/12/15 08:52:39;;;;;;;9.13;4.13;;;9.50;99.90;;;;;;5030909;28;20033;-56
2023/12/15 08:55:06;;;;;;;15.40;4.03;;;9.50;99.90;;;;;;5029308;28;20502;-58
2023/12/15 08:57:32;;;;;;;10.38;3.65;;;9.60;99.90;;;;;;5032799;28;20048;-56
2023/12/15 08:59:58;;;;;;;26.15;5.38;;;9.60;99.90;;;;;;5032751;28;20538;-57
2023/12/15 09:02:25;;;;;;;8.75;4.22;;;9.60;99.90;;;;;;5030518;28;20562;-58
2023/12/15 09:04:51;;;;;;;13.85;4.32;;;9.70;99.90;;;;;;5032568;28;20105;-56
2023/12/15 09:07:17;;;;;;;22.65;5.35;;;9.70;99.90;;;;;;5031471;28;20509;-56
2023/12/15 09:09:43;;;;;;;14.65;3.83;;;9.70;99.90;;;;;;5031058;28;20392;-57
2023/12/15 09:12:10;;;;;;;19.88;4.43;;;9.80;99.90;;;;;;5030010;28;20040;-56
2023/12/15 09:14:36;;;;;;;13.55;3.38;;;9.80;99.90;;;;;;5025727;28;20022;-55
2023/12/15 09:17:03;;;;;;;20.95;4.07;;;9.80;99.90;;;;;;5026757;28;20040;-56
2023/12/15 09:19:30;;;;;;;19.10;4.50;;;9.90;99.90;;;;;;5024171;28;20491;-57
2023/12/15 09:21:56;;;;;;;15.95;4.35;;;9.90;99.90;;;;;;5029295;28;20029;-56
2023/12/15 09:24:21;;;;;;;14.18;4.03;;;9.90;99.90;;;;;;5029974;28;20036;-59
2023/12/15 09:26:47;;;;;;;17.73;3.80;;;10.00;99.90;;;;;;5027422;28;20098;-42
2023/12/15 09:29:14;;;;;;;13.27;3.67;;;10.00;99.90;;;;;;5031877;28;20017;-44
2023/12/15 09:31:40;;;;;;;10.80;3.03;;;10.00;99.90;;;;;;5023967;28;20140;-48
2023/12/15 09:34:06;;;;;;;17.25;3.60;;;10.10;99.90;;;;;;5031897;28;20471;-49
2023/12/15 09:36:32;;;;;;;16.33;4.50;;;10.10;99.90;;;;;;5029648;28;20030;-48
2023/12/15 09:38:58;;;;;;;11.80;2.88;;;10.10;99.90;;;;;;5026708;28;20426;-47
2023/12/15 09:41:24;;;;;;;12.32;3.28;;;10.20;99.90;;;;;;5028699;28;20045;-47
2023/12/15 09:43:50;;;;;;;14.50;3.80;;;10.20;99.90;;;;;;5027066;28;20034;-46
2023/12/15 09:46:16;;;;;;;8.27;2.90;;;10.20;99.90;;;;;;5024616;28;20113;-49
2023/12/15 09:48:44;;;;;;;14.05;3.55;;;10.20;99.90;;;;;;5029920;28;20475;-53
2023/12/15 09:51:17;;;;;;;15.43;3.90;;;10.20;99.90;;;;;;5029695;28;20467;-48
2023/12/15 09:53:48;;;;;;;12.10;4.03;;;10.20;99.90;;;;;;5023243;28;20379;-46
2023/12/15 09:56:14;;;;;;;10.85;3.67;;;10.20;99.90;;;;;;5031501;28;20518;-44
2023/12/15 09:58:40;;;;;;;11.00;2.90;;;10.20;99.90;;;;;;5026008;28;20483;-43
2023/12/15 10:01:06;;;;;;;12.50;3.35;;;10.30;99.90;;;;;;5027356;28;20030;-41
2023/12/15 10:03:32;;;;;;;7.95;2.83;;;10.40;99.90;;;;;;5026951;28;20022;-42
2023/12/15 10:05:58;;;;;;;9.93;4.10;;;10.40;99.90;;;;;;5029220;28;20036;-49
2023/12/15 10:08:24;;;;;;;13.68;2.88;;;10.50;99.90;;;;;;5029132;28;20454;-44
2023/12/15 10:10:50;;;;;;;17.27;4.13;;;10.50;99.90;;;;;;5019459;28;20021;-47
2023/12/15 10:13:16;;;;;;;17.25;3.88;;;10.50;99.90;;;;;;5030553;28;20480;-46
2023/12/15 10:15:43;;;;;;;10.18;3.55;;;10.60;99.90;;;;;;5028527;28;20018;-47
2023/12/15 10:18:09;;;;;;;9.40;2.70;;;10.70;99.90;;;;;;5027670;28;20107;-43
2023/12/15 10:20:35;;;;;;;20.40;3.20;;;10.70;99.90;;;;;;5028527;28;20029;-49
2023/12/15 10:23:06;;;;;;;10.70;3.53;;;10.70;99.90;;;;;;5029698;28;20474;-50
2023/12/15 10:25:35;;;;;;;18.95;3.72;;;10.80;99.90;;;;;;5026339;28;20449;-53
2023/12/15 10:28:06;;;;;;;15.93;4.00;;;10.80;99.90;;;;;;5026317;28;20048;-47
2023/12/15 10:30:32;;;;;;;20.45;3.67;;;10.70;99.90;;;;;;5029956;28;20097;-43
2023/12/15 10:32:58;;;;;;;11.50;2.92;;;10.70;99.90;;;;;;5030657;28;20109;-44
2023/12/15 10:35:25;;;;;;;22.30;3.88;;;10.70;99.90;;;;;;5030340;28;20502;-45
2023/12/15 10:37:52;;;;;;;9.23;2.70;;;10.80;99.90;;;;;;5029097;28;20033;-43
2023/12/15 10:40:18;;;;;;;13.75;2.67;;;10.80;99.90;;;;;;5032288;28;20025;-43
2023/12/15 10:42:44;;;;;;;9.20;2.58;;;10.80;99.90;;;;;;5032790;28;20075;-45
2023/12/15 10:45:10;;;;;;;11.82;3.97;;;10.80;99.90;;;;;;5034585;28;20041;-42
2023/12/15 10:47:37;;;;;;;11.82;3.58;;;10.80;99.90;;;;;;5034259;28;20108;-46
2023/12/15 10:50:03;;;;;;;12.88;3.13;;;10.80;99.90;;;;;;5034826;28;20025;-44
2023/12/15 10:52:33;;;;;;;17.45;2.92;;;10.80;99.90;;;;;;5034031;28;20028;-50
2023/12/15 10:55:03;;;;;;;12.32;3.35;;;10.80;99.90;;;;;;5034968;28;20402;-43
2023/12/15 10:57:30;;;;;;;16.20;2.90;;;10.90;99.90;;;;;;5035228;28;20468;-44
2023/12/15 10:59:57;;;;;;;14.80;2.80;;;11.00;99.90;;;;;;5033886;28;20490;-45
2023/12/15 11:02:24;;;;;;;9.10;2.65;;;11.00;99.90;;;;;;5033248;28;20021;-43
2023/12/15 11:04:51;;;;;;;14.38;3.92;;;11.10;99.90;;;;;;5034924;28;20022;-45
2023/12/15 11:07:21;;;;;;;10.53;2.20;;;11.00;99.90;;;;;;5035377;28;20025;-51
2023/12/15 11:10:08;;;;;;;10.10;2.83;;;11.00;99.90;;;;;;5035263;28;20028;-46
2023/12/15 11:12:41;;;;;;;9.82;3.08;;;11.10;99.90;;;;;;5034034;28;20033;-51
2023/12/15 11:15:17;;;;;;;16.30;2.78;;;11.20;99.90;;;;;;5034855;28;20068;-44
2023/12/15 11:17:49;;;;;;;13.30;2.28;;;11.20;99.90;;;;;;5035396;28;20433;-43
2023/12/15 11:20:20;;;;;;;11.85;2.72;;;11.30;99.90;;;;;;5034506;28;20030;-46
2023/12/15 11:23:04;;;;;;;11.80;2.80;;;11.30;99.90;;;;;;5034913;28;20068;-43
2023/12/15 11:25:34;;;;;;;14.95;2.15;;;11.30;99.90;;;;;;5023204;28;20390;-43
2023/12/15 11:28:08;;;;;;;13.10;2.50;;;11.30;99.90;;;;;;5034272;28;20057;-48
2023/12/15 11:30:42;;;;;;;11.88;2.70;;;11.30;99.90;;;;;;5034931;28;20044;-45
2023/12/15 11:33:26;;;;;;;8.05;2.65;;;11.30;99.90;;;;;;5033819;28;20468;-48
2023/12/15 11:36:02;;;;;;;10.68;2.28;;;11.30;99.90;;;;;;5034605;28;20483;-45
2023/12/15 11:38:28;;;;;;;14.27;3.30;;;11.30;99.90;;;;;;5033987;28;20538;-48
2023/12/15 11:40:54;;;;;;;18.58;3.22;;;11.40;99.90;;;;;;5034523;28;20026;-46
2023/12/15 11:43:20;;;;;;;6.03;1.80;;;11.40;99.90;;;;;;5033766;28;20514;-44
2023/12/15 11:45:48;;;;;;;9.75;1.98;;;11.50;99.90;;;;;;5033111;28;20053;-48
2023/12/15 11:48:14;;;;;;;11.02;2.00;;;11.50;99.90;;;;;;5034018;28;20381;-42
2023/12/15 11:50:44;;;;;;;9.77;2.42;;;11.60;99.90;;;;;;5033148;28;20034;-41
2023/12/15 11:53:10;;;;;;;4.47;1.38;;;11.60;99.90;;;;;;5033948;28;20057;-46
2023/12/15 11:55:36;;;;;;;12.73;1.90;;;11.70;99.90;;;;;;5034244;28;20033;-44
2023/12/15 11:58:02;;;;;;;12.07;2.53;;;11.80;99.90;;;;;;5034078;28;20511;-45
2023/12/15 12:00:30;;;;;;;8.95;1.63;;;11.80;99.90;;;;;;5034330;28;20510;-48
2023/12/15 12:02:56;;;;;;;7.72;1.90;;;11.80;99.90;;;;;;5033608;28;20466;-44
2023/12/15 12:05:22;;;;;;;16.05;2.10;;;11.60;99.90;;;;;;5033997;28;20360;-46
2023/12/15 12:07:48;;;;;;;10.40;2.55;;;11.60;99.90;;;;;;5032885;28;20072;-44
2023/12/15 12:10:15;;;;;;;4.30;2.10;;;11.60;99.90;;;;;;5034161;28;20079;-42
2023/12/15 12:12:41;;;;;;;8.63;2.05;;;11.60;99.90;;;;;;5033189;28;20377;-48
2023/12/15 12:15:09;;;;;;;9.55;1.80;;;11.40;99.90;;;;;;5033780;28;20040;-45
2023/12/15 12:17:37;;;;;;;6.22;1.60;;;11.30;99.90;;;;;;5033872;28;20037;-45
2023/12/15 12:20:07;;;;;;;11.70;2.47;;;11.30;99.90;;;;;;5033603;28;20086;-46
2023/12/15 12:22:33;;;;;;;3.13;1.52;;;11.20;99.90;;;;;;5033874;28;20438;-45
2023/12/15 12:24:59;;;;;;;13.40;2.58;;;11.30;99.90;;;;;;5032575;28;20053;-46
2023/12/15 12:27:35;;;;;;;8.70;1.88;;;11.40;99.90;;;;;;5033659;28;20458;-47
2023/12/15 12:30:01;;;;;;;8.02;1.58;;;11.40;99.90;;;;;;5033694;28;20021;-44
2023/12/15 12:32:27;;;;;;;3.42;1.80;;;11.20;99.90;;;;;;5032985;28;20060;-47
2023/12/15 12:34:53;;;;;;;9.38;2.03;;;11.30;99.90;;;;;;5033966;28;20173;-45
2023/12/15 12:37:19;;;;;;;10.80;1.88;;;11.40;99.90;;;;;;5033341;28;20033;-49
2023/12/15 12:39:45;;;;;;;12.52;1.50;;;11.40;99.90;;;;;;5033598;28;20163;-46